Terminal Aerodrome Forecast
Issued by NWS

Home | Current Version | Previous Version | Text Only | Print | Product List | Glossary On
Versions: 1 2 3 4 5 6 7 8 9 10 11 12 13 14 15 16
000
FTUS45 KSLC 271740
TAFENV
TAF
KENV 271740Z 2718/2818 32010G18KT P6SM SCT040 BKN080
     FM272000 29018G28KT P6SM SCT080 SCT120
     FM280300 29007KT P6SM FEW080 SCT120 BKN150
     FM281600 32010G18KT P6SM SCT060 BKN090
      AMD LTD TO CLD VIS AND WIND=

USA.gov is the U.S. government's official web portal to all federal, state and local government web resources and services.